Time,TemperatureF,DewpointF,PressureIn,WindDirection,WindDirectionDegrees,WindSpeedMPH,WindSpeedGustMPH,Humidity,HourlyPrecipIn,Conditions,Clouds,dailyrainin,SoftwareType,DateUTC
2013-01-20 00:02:00,31.0,-99.9,-100.00,SE,142,2.0,2.0,-999,-99.99,,,-99.99,,2013-01-20 08:02:00,
2013-01-20 00:12:00,31.0,-99.9,-100.00,SE,142,2.0,2.0,-999,-99.99,,,-99.99,,2013-01-20 08:12:00,
2013-01-20 00:22:00,32.0,-99.9,-100.00,ESE,115,1.0,2.0,-999,-99.99,,,-99.99,,2013-01-20 08:22:00,
2013-01-20 00:32:00,30.0,-99.9,-100.00,SE,143,4.0,4.0,-999,-99.99,,,-99.99,,2013-01-20 08:32:00,
2013-01-20 00:42:00,30.0,-99.9,-100.00,SE,143,4.0,4.0,-999,-99.99,,,-99.99,,2013-01-20 08:42:00,
2013-01-20 00:53:00,31.0,-99.9,-100.00,ESE,103,2.0,3.0,-999,-99.99,,,-99.99,,2013-01-20 08:53:00,
2013-01-20 01:02:00,31.0,-99.9,-100.00,ESE,103,2.0,3.0,-999,-99.99,,,-99.99,,2013-01-20 09:02:00,
2013-01-20 01:22:00,31.0,-99.9,-100.00,ESE,120,3.0,6.0,-999,-99.99,,,-99.99,,2013-01-20 09:22:00,
2013-01-20 01:33:00,30.0,-99.9,-100.00,SSE,148,4.0,4.0,-999,-99.99,,,-99.99,,2013-01-20 09:33:00,
2013-01-20 01:43:00,30.0,-99.9,-100.00,SSE,148,4.0,4.0,-999,-99.99,,,-99.99,,2013-01-20 09:43:00,
2013-01-20 01:53:00,30.0,-99.9,-100.00,SSE,148,4.0,4.0,-999,-99.99,,,-99.99,,2013-01-20 09:53:00,
2013-01-20 02:00:00,30.0,-99.9,-100.00,NE,55,1.0,3.0,-999,-99.99,,,-99.99,,2013-01-20 10:00:00,
2013-01-20 02:23:00,31.0,-99.9,-100.00,SE,146,2.0,4.0,-999,-99.99,,,-99.99,,2013-01-20 10:23:00,
2013-01-20 02:33:00,31.0,-99.9,-100.00,East,79,2.0,4.0,-999,-99.99,,,-99.99,,2013-01-20 10:33:00,
2013-01-20 02:43:00,31.0,-99.9,-100.00,East,79,2.0,4.0,-999,-99.99,,,-99.99,,2013-01-20 10:43:00,
2013-01-20 02:53:00,30.0,-99.9,-100.00,NE,55,1.0,3.0,-999,-99.99,,,-99.99,,2013-01-20 10:53:00,
2013-01-20 03:10:00,30.0,-99.9,-100.00,SSE,165,0.0,4.0,-999,-99.99,,,-99.99,,2013-01-20 11:10:00,
2013-01-20 03:23:00,32.0,-99.9,-100.00,SE,129,1.0,3.0,-999,-99.99,,,-99.99,,2013-01-20 11:23:00,
2013-01-20 03:33:00,31.0,-99.9,-100.00,SE,145,2.0,2.0,-999,-99.99,,,-99.99,,2013-01-20 11:33:00,
2013-01-20 03:43:00,31.0,-99.9,-100.00,SE,145,2.0,2.0,-999,-99.99,,,-99.99,,2013-01-20 11:43:00,
2013-01-20 03:54:00,31.0,-99.9,-100.00,SE,145,2.0,2.0,-999,-99.99,,,-99.99,,2013-01-20 11:54:00,
2013-01-20 04:00:00,29.0,-99.9,-100.00,SE,134,2.0,4.0,-999,-99.99,,,-99.99,,2013-01-20 12:00:00,
2013-01-20 04:03:00,30.0,-99.9,-100.00,SSE,165,0.0,4.0,-999,-99.99,,,-99.99,,2013-01-20 12:03:00,
2013-01-20 04:34:00,31.0,-99.9,-100.00,SE,134,0.0,2.0,-999,-99.99,,,-99.99,,2013-01-20 12:34:00,
2013-01-20 04:44:00,31.0,-99.9,-100.00,SE,134,0.0,2.0,-999,-99.99,,,-99.99,,2013-01-20 12:44:00,
2013-01-20 04:53:00,29.0,-99.9,-100.00,SE,134,2.0,4.0,-999,-99.99,,,-99.99,,2013-01-20 12:53:00,
2013-01-20 05:33:00,29.0,-99.9,-100.00,SSE,161,0.0,5.0,-999,-99.99,,,-99.99,,2013-01-20 13:33:00,
2013-01-20 05:43:00,29.0,-99.9,-100.00,SSE,161,0.0,5.0,-999,-99.99,,,-99.99,,2013-01-20 13:43:00,
2013-01-20 05:53:00,29.0,-99.9,-100.00,SSE,161,0.0,5.0,-999,-99.99,,,-99.99,,2013-01-20 13:53:00,
2013-01-20 06:23:00,29.0,-99.9,-100.00,SE,146,4.0,6.0,-999,-99.99,,,-99.99,,2013-01-20 14:23:00,
2013-01-20 06:33:00,32.0,-99.9,-100.00,East,88,1.0,3.0,-999,-99.99,,,-99.99,,2013-01-20 14:33:00,
2013-01-20 06:43:00,32.0,-99.9,-100.00,East,88,1.0,3.0,-999,-99.99,,,-99.99,,2013-01-20 14:43:00,
2013-01-20 06:53:00,32.0,-99.9,-100.00,East,88,1.0,3.0,-999,-99.99,,,-99.99,,2013-01-20 14:53:00,
2013-01-20 07:04:00,30.0,-99.9,-100.00,ENE,64,0.0,4.0,-999,-99.99,,,-99.99,,2013-01-20 15:04:00,
2013-01-20 07:13:00,30.0,-99.9,-100.00,ENE,64,0.0,4.0,-999,-99.99,,,-99.99,,2013-01-20 15:13:00,
2013-01-20 07:23:00,31.0,-99.9,-100.00,South,170,0.0,2.0,-999,-99.99,,,-99.99,,2013-01-20 15:23:00,
2013-01-20 07:33:00,29.0,-99.9,-100.00,ESE,121,1.0,3.0,-999,-99.99,,,-99.99,,2013-01-20 15:33:00,
2013-01-20 07:43:00,29.0,-99.9,-100.00,ESE,121,1.0,3.0,-999,-99.99,,,-99.99,,2013-01-20 15:43:00,
2013-01-20 07:53:00,29.0,-99.9,-100.00,ESE,121,1.0,3.0,-999,-99.99,,,-99.99,,2013-01-20 15:53:00,
2013-01-20 08:33:00,30.0,-99.9,-100.00,NE,56,3.0,4.0,-999,-99.99,,,-99.99,,2013-01-20 16:33:00,
2013-01-20 08:43:00,30.0,-99.9,-100.00,NE,56,3.0,4.0,-999,-99.99,,,-99.99,,2013-01-20 16:43:00,
2013-01-20 08:53:00,30.0,-99.9,-100.00,NE,56,3.0,4.0,-999,-99.99,,,-99.99,,2013-01-20 16:53:00,
2013-01-20 09:20:00,31.0,-99.9,-100.00,NE,53,2.0,3.0,-999,-99.99,,,-99.99,,2013-01-20 17:20:00,
2013-01-20 09:23:00,32.0,-99.9,-100.00,East,89,2.0,2.0,-999,-99.99,,,-99.99,,2013-01-20 17:23:00,
2013-01-20 09:33:00,31.0,-99.9,-100.00,SE,124,3.0,3.0,-999,-99.99,,,-99.99,,2013-01-20 17:33:00,
2013-01-20 09:43:00,31.0,-99.9,-100.00,SE,124,3.0,3.0,-999,-99.99,,,-99.99,,2013-01-20 17:43:00,
2013-01-20 09:53:00,31.0,-99.9,-100.00,SE,124,3.0,3.0,-999,-99.99,,,-99.99,,2013-01-20 17:53:00,
2013-01-20 10:03:00,31.0,-99.9,-100.00,NE,53,2.0,3.0,-999,-99.99,,,-99.99,,2013-01-20 18:03:00,
2013-01-20 10:13:00,31.0,-99.9,-100.00,NE,53,2.0,3.0,-999,-99.99,,,-99.99,,2013-01-20 18:13:00,
2013-01-20 10:33:00,30.0,-99.9,-100.00,NE,56,1.0,4.0,-999,-99.99,,,-99.99,,2013-01-20 18:33:00,
2013-01-20 10:43:00,30.0,-99.9,-100.00,NE,56,1.0,4.0,-999,-99.99,,,-99.99,,2013-01-20 18:43:00,
2013-01-20 10:53:00,30.0,-99.9,-100.00,NE,56,1.0,4.0,-999,-99.99,,,-99.99,,2013-01-20 18:53:00,
2013-01-20 11:23:00,32.0,-99.9,-100.00,East,79,1.0,4.0,-999,-99.99,,,-99.99,,2013-01-20 19:23:00,
2013-01-20 11:33:00,30.0,-99.9,-100.00,East,96,1.0,6.0,-999,-99.99,,,-99.99,,2013-01-20 19:33:00,
2013-01-20 11:43:00,30.0,-99.9,-100.00,East,96,1.0,6.0,-999,-99.99,,,-99.99,,2013-01-20 19:43:00,
2013-01-20 11:53:00,30.0,-99.9,-100.00,East,96,1.0,6.0,-999,-99.99,,,-99.99,,2013-01-20 19:53:00,
2013-01-20 12:03:00,32.0,-99.9,-100.00,NE,47,1.0,3.0,-999,-99.99,,,-99.99,,2013-01-20 20:03:00,
2013-01-20 12:12:00,32.0,-99.9,-100.00,NE,47,1.0,3.0,-999,-99.99,,,-99.99,,2013-01-20 20:12:00,
2013-01-20 12:43:00,31.0,-99.9,-100.00,South,181,1.0,4.0,-999,-99.99,,,-99.99,,2013-01-20 20:43:00,
2013-01-20 12:54:00,31.0,-99.9,-100.00,South,181,1.0,4.0,-999,-99.99,,,-99.99,,2013-01-20 20:54:00,
2013-01-20 13:34:00,31.0,-99.9,-100.00,NE,53,2.0,5.0,-999,-99.99,,,-99.99,,2013-01-20 21:34:00,
2013-01-20 13:43:00,31.0,-99.9,-100.00,NE,53,2.0,5.0,-999,-99.99,,,-99.99,,2013-01-20 21:43:00,
2013-01-20 13:54:00,31.0,-99.9,-100.00,NE,53,2.0,5.0,-999,-99.99,,,-99.99,,2013-01-20 21:54:00,
2013-01-20 14:34:00,32.0,-99.9,-100.00,SE,125,1.0,4.0,-999,-99.99,,,-99.99,,2013-01-20 22:34:00,
2013-01-20 14:43:00,32.0,-99.9,-100.00,SE,125,1.0,4.0,-999,-99.99,,,-99.99,,2013-01-20 22:43:00,
2013-01-20 14:53:00,32.0,-99.9,-100.00,SE,125,1.0,4.0,-999,-99.99,,,-99.99,,2013-01-20 22:53:00,
2013-01-20 15:33:00,30.0,-99.9,-100.00,East,100,2.0,6.0,-999,-99.99,,,-99.99,,2013-01-20 23:33:00,
2013-01-20 15:43:00,30.0,-99.9,-100.00,East,100,2.0,6.0,-999,-99.99,,,-99.99,,2013-01-20 23:43:00,
2013-01-20 15:53:00,30.0,-99.9,-100.00,East,100,2.0,6.0,-999,-99.99,,,-99.99,,2013-01-20 23:53:00,
2013-01-20 16:33:00,32.0,-99.9,-100.00,ENE,58,1.0,3.0,-999,-99.99,,,-99.99,,2013-01-21 00:33:00,
2013-01-20 16:43:00,32.0,-99.9,-100.00,ENE,58,1.0,3.0,-999,-99.99,,,-99.99,,2013-01-21 00:43:00,
2013-01-20 16:54:00,32.0,-99.9,-100.00,ENE,58,1.0,3.0,-999,-99.99,,,-99.99,,2013-01-21 00:54:00,
2013-01-20 17:10:00,29.0,-99.9,-100.00,East,82,4.0,7.0,-999,-99.99,,,-99.99,,2013-01-21 01:10:00,
2013-01-20 17:33:00,31.0,-99.9,-100.00,ENE,69,3.0,5.0,-999,-99.99,,,-99.99,,2013-01-21 01:33:00,
2013-01-20 17:44:00,31.0,-99.9,-100.00,ENE,69,3.0,5.0,-999,-99.99,,,-99.99,,2013-01-21 01:44:00,
2013-01-20 17:53:00,29.0,-99.9,-100.00,East,82,4.0,7.0,-999,-99.99,,,-99.99,,2013-01-21 01:53:00,
2013-01-20 18:03:00,29.0,-99.9,-100.00,East,82,4.0,7.0,-999,-99.99,,,-99.99,,2013-01-21 02:03:00,
2013-01-20 18:34:00,30.0,-99.9,-100.00,ESE,103,5.0,6.0,-999,-99.99,,,-99.99,,2013-01-21 02:34:00,
2013-01-20 18:43:00,30.0,-99.9,-100.00,ESE,103,5.0,6.0,-999,-99.99,,,-99.99,,2013-01-21 02:43:00,
2013-01-20 18:54:00,30.0,-99.9,-100.00,ESE,103,5.0,6.0,-999,-99.99,,,-99.99,,2013-01-21 02:54:00,
2013-01-20 19:03:00,30.0,-99.9,-100.00,SSE,151,0.0,6.0,-999,-99.99,,,-99.99,,2013-01-21 03:03:00,
2013-01-20 19:13:00,30.0,-99.9,-100.00,SSE,151,0.0,6.0,-999,-99.99,,,-99.99,,2013-01-21 03:13:00,
2013-01-20 19:33:00,31.0,-99.9,-100.00,NE,53,1.0,4.0,-999,-99.99,,,-99.99,,2013-01-21 03:33:00,
2013-01-20 19:44:00,31.0,-99.9,-100.00,NE,53,1.0,4.0,-999,-99.99,,,-99.99,,2013-01-21 03:44:00,
2013-01-20 19:54:00,31.0,-99.9,-100.00,NE,53,1.0,4.0,-999,-99.99,,,-99.99,,2013-01-21 03:54:00,
2013-01-20 20:23:00,32.0,-99.9,-100.00,East,83,0.0,4.0,-999,-99.99,,,-99.99,,2013-01-21 04:23:00,
2013-01-20 20:33:00,29.0,-99.9,-100.00,ESE,116,0.0,3.0,-999,-99.99,,,-99.99,,2013-01-21 04:33:00,
2013-01-20 20:43:00,29.0,-99.9,-100.00,ESE,116,0.0,3.0,-999,-99.99,,,-99.99,,2013-01-21 04:43:00,
2013-01-20 20:53:00,29.0,-99.9,-100.00,ESE,116,0.0,3.0,-999,-99.99,,,-99.99,,2013-01-21 04:53:00,
2013-01-20 21:23:00,30.0,-99.9,-100.00,SE,137,2.0,6.0,-999,-99.99,,,-99.99,,2013-01-21 05:23:00,
2013-01-20 21:34:00,29.0,-99.9,-100.00,SE,132,2.0,6.0,-999,-99.99,,,-99.99,,2013-01-21 05:34:00,
2013-01-20 21:43:00,29.0,-99.9,-100.00,SE,132,2.0,6.0,-999,-99.99,,,-99.99,,2013-01-21 05:43:00,
2013-01-20 21:53:00,29.0,-99.9,-100.00,SE,132,2.0,6.0,-999,-99.99,,,-99.99,,2013-01-21 05:53:00,
2013-01-20 22:53:00,29.0,-99.9,-100.00,NE,49,3.0,4.0,-999,-99.99,,,-99.99,,2013-01-21 06:53:00,
2013-01-20 23:53:00,30.0,-99.9,-100.00,East,91,2.0,6.0,-999,-99.99,,,-99.99,,2013-01-21 07:53:00,